createdAt,value
2022-07-25T00:00:43.907Z,64.29
2022-07-25T00:01:39.158Z,64.83
2022-07-25T00:02:34.275Z,64.94
2022-07-25T00:03:29.812Z,65.08
2022-07-25T00:04:25.060Z,64.93
2022-07-25T00:05:20.203Z,64.76
2022-07-25T00:06:17.974Z,65.25
2022-07-25T00:07:11.725Z,65.63
2022-07-25T00:08:06.941Z,65.89
2022-07-25T00:09:02.170Z,65.73
2022-07-25T00:09:57.290Z,65.65
2022-07-25T00:10:52.489Z,66.09
2022-07-25T00:11:47.685Z,66.60
2022-07-25T00:12:42.805Z,66.26
2022-07-25T00:13:37.925Z,65.69
2022-07-25T00:14:33.270Z,65.80
2022-07-25T00:15:28.374Z,65.63
2022-07-25T00:16:23.709Z,65.37
2022-07-25T00:17:18.837Z,65.81
2022-07-25T00:18:14.047Z,65.94
2022-07-25T00:19:09.284Z,65.93
2022-07-25T00:20:04.445Z,66.05
2022-07-25T00:20:59.553Z,66.00
2022-07-25T00:21:54.930Z,65.71
2022-07-25T00:22:50.014Z,65.35
2022-07-25T00:23:45.123Z,65.44
2022-07-25T00:24:40.235Z,65.78
2022-07-25T00:25:35.434Z,65.76
2022-07-25T00:26:30.822Z,65.79
2022-07-25T00:27:25.939Z,65.42
2022-07-25T00:28:21.050Z,65.60
2022-07-25T00:29:16.176Z,65.63
2022-07-25T00:30:11.569Z,65.57
2022-07-25T00:31:06.659Z,65.16
2022-07-25T00:32:01.770Z,65.27
2022-07-25T00:32:57.014Z,65.44
2022-07-25T00:33:52.128Z,65.36
2022-07-25T00:34:47.378Z,65.18
2022-07-25T00:35:42.463Z,65.11
2022-07-25T00:36:37.601Z,65.56
2022-07-25T00:37:32.832Z,65.45
2022-07-25T00:38:28.182Z,65.69
2022-07-25T00:39:23.169Z,65.99
2022-07-25T00:40:18.275Z,65.98
2022-07-25T00:41:13.381Z,66.53
2022-07-25T00:42:08.590Z,66.49
2022-07-25T00:43:03.978Z,66.07
2022-07-25T00:43:59.074Z,66.32
2022-07-25T00:44:54.241Z,66.69
2022-07-25T00:45:49.344Z,66.43
2022-07-25T00:46:44.771Z,66.26
2022-07-25T00:47:39.879Z,66.43
2022-07-25T00:48:35.080Z,65.97
2022-07-25T00:49:30.325Z,65.70
2022-07-25T00:50:25.439Z,66.07
2022-07-25T00:51:20.706Z,66.17
2022-07-25T00:52:15.796Z,66.09
2022-07-25T00:53:10.924Z,66.26
2022-07-25T00:54:06.502Z,66.38
2022-07-25T00:55:01.462Z,66.67
2022-07-25T00:55:56.460Z,66.45
2022-07-25T00:56:51.593Z,66.18
2022-07-25T00:57:46.735Z,65.75
2022-07-25T00:58:41.818Z,65.48
2022-07-25T00:59:37.185Z,65.47
2022-07-25T01:00:32.292Z,66.16
2022-07-25T01:01:27.565Z,66.55
2022-07-25T01:02:22.678Z,67.04
2022-07-25T01:03:18.105Z,66.97
2022-07-25T01:04:13.056Z,66.83
2022-07-25T01:05:08.206Z,67.16
2022-07-25T01:06:03.207Z,67.15
2022-07-25T01:06:58.303Z,66.65
2022-07-25T01:07:53.337Z,66.38
2022-07-25T01:08:48.571Z,66.61
2022-07-25T01:09:43.715Z,66.98
2022-07-25T01:10:38.966Z,66.91
2022-07-25T01:11:33.940Z,66.60
2022-07-25T01:12:29.145Z,66.12
2022-07-25T01:13:24.161Z,65.73
2022-07-25T01:14:19.542Z,64.96
2022-07-25T01:15:14.360Z,65.27
2022-07-25T01:16:09.456Z,65.65
2022-07-25T01:17:04.423Z,66.07
2022-07-25T01:17:59.638Z,66.27
2022-07-25T01:18:54.531Z,65.89
2022-07-25T01:19:49.562Z,66.21
2022-07-25T01:20:44.614Z,66.99
2022-07-25T01:21:39.738Z,66.89
2022-07-25T01:22:34.741Z,66.54
2022-07-25T01:23:29.855Z,66.12
2022-07-25T01:24:25.382Z,65.39
2022-07-25T01:25:20.501Z,65.62
2022-07-25T01:26:15.614Z,66.78
2022-07-25T01:27:17.402Z,67.14
2022-07-25T01:28:07.607Z,67.28
2022-07-25T01:29:02.490Z,67.88
2022-07-25T01:29:57.768Z,68.10
2022-07-25T01:30:53.082Z,68.12
2022-07-25T01:31:48.753Z,68.18
2022-07-25T01:32:43.998Z,68.18
2022-07-25T01:33:39.094Z,68.42
2022-07-25T01:34:35.625Z,69.01
2022-07-25T01:35:30.804Z,68.96
2022-07-25T01:36:26.594Z,68.44
2022-07-25T01:37:21.816Z,67.94
2022-07-25T01:38:16.973Z,67.16
2022-07-25T01:39:12.816Z,66.33
2022-07-25T01:40:07.977Z,66.24
2022-07-25T01:41:03.778Z,66.49
2022-07-25T01:41:58.982Z,66.76
2022-07-25T01:42:54.255Z,66.45
2022-07-25T01:43:50.072Z,66.70
2022-07-25T01:44:45.222Z,67.34
2022-07-25T01:45:40.340Z,67.21
2022-07-25T01:46:36.791Z,67.79
2022-07-25T01:47:31.991Z,67.60
2022-07-25T01:48:27.831Z,67.47
2022-07-25T01:49:22.933Z,67.95
2022-07-25T01:50:18.084Z,67.76
2022-07-25T01:51:13.916Z,67.87
2022-07-25T01:52:09.171Z,68.21
2022-07-25T01:53:05.081Z,68.26
2022-07-25T01:54:00.223Z,68.83
2022-07-25T01:54:55.383Z,68.46
2022-07-25T01:55:51.236Z,68.36
2022-07-25T01:56:47.643Z,68.05
2022-07-25T01:57:48.606Z,68.14
2022-07-25T01:58:37.985Z,68.58
2022-07-25T01:59:32.039Z,68.21
2022-07-25T02:00:27.053Z,68.50
2022-07-25T02:01:22.286Z,69.18
2022-07-25T02:02:17.162Z,69.11
2022-07-25T02:03:12.371Z,68.60
2022-07-25T02:04:07.577Z,68.13
2022-07-25T02:05:02.323Z,68.47
2022-07-25T02:05:57.337Z,68.19
2022-07-25T02:06:52.348Z,68.32
2022-07-25T02:07:47.358Z,67.97
2022-07-25T02:08:44.079Z,68.02
2022-07-25T02:09:39.180Z,68.41
2022-07-25T02:10:34.358Z,68.49
2022-07-25T02:11:29.438Z,68.50
2022-07-25T02:12:24.469Z,68.48
2022-07-25T02:13:19.448Z,68.02
2022-07-25T02:14:14.583Z,68.36
2022-07-25T02:15:09.577Z,68.91
2022-07-25T02:16:04.716Z,69.52
2022-07-25T02:16:59.924Z,69.41
2022-07-25T02:17:54.915Z,69.16
2022-07-25T02:18:49.946Z,68.26
2022-07-25T02:19:45.070Z,67.98
2022-07-25T02:20:40.050Z,67.78
2022-07-25T02:21:35.876Z,68.21
2022-07-25T02:22:31.101Z,68.18
2022-07-25T02:23:26.219Z,68.74
2022-07-25T02:24:22.553Z,69.38
2022-07-25T02:25:17.803Z,68.84
2022-07-25T02:26:13.624Z,68.66
2022-07-25T02:27:08.733Z,68.52
2022-07-25T02:28:03.869Z,68.58
2022-07-25T02:28:59.745Z,68.46
2022-07-25T02:29:54.998Z,68.69
2022-07-25T02:30:50.979Z,68.54
2022-07-25T02:31:45.903Z,68.63
2022-07-25T02:32:41.174Z,68.64
2022-07-25T02:33:37.021Z,68.28
2022-07-25T02:34:32.261Z,67.94
2022-07-25T02:35:27.529Z,68.01
2022-07-25T02:36:22.710Z,68.65
2022-07-25T02:37:17.822Z,69.61
2022-07-25T02:38:13.273Z,69.62
2022-07-25T02:39:08.456Z,69.62
2022-07-25T02:40:03.540Z,69.29
2022-07-25T02:40:59.339Z,69.20
2022-07-25T02:41:54.561Z,69.22
2022-07-25T02:42:49.806Z,68.92
2022-07-25T02:43:44.907Z,68.56
2022-07-25T02:44:40.008Z,68.18
2022-07-25T02:45:35.069Z,67.92
2022-07-25T02:46:30.163Z,68.45
2022-07-25T02:47:25.304Z,68.50
2022-07-25T02:48:20.199Z,68.29
2022-07-25T02:49:15.463Z,67.98
2022-07-25T02:50:14.458Z,68.03
2022-07-25T02:51:05.691Z,68.27
2022-07-25T02:52:00.688Z,68.81
2022-07-25T02:52:55.819Z,69.02
2022-07-25T02:53:58.835Z,69.03
2022-07-25T02:54:46.867Z,68.77
2022-07-25T02:55:40.949Z,68.54
2022-07-25T02:56:36.036Z,68.95
2022-07-25T02:57:31.004Z,69.12
2022-07-25T02:58:26.078Z,69.38
2022-07-25T02:59:21.085Z,69.73
2022-07-25T03:00:16.166Z,69.69
2022-07-25T03:01:11.340Z,69.26
2022-07-25T03:02:06.344Z,69.15
2022-07-25T03:03:01.422Z,68.64
2022-07-25T03:03:56.445Z,68.32
2022-07-25T03:04:51.428Z,68.55
2022-07-25T03:05:46.549Z,68.48
2022-07-25T03:06:41.815Z,68.67
2022-07-25T03:07:37.493Z,69.04
2022-07-25T03:08:32.740Z,68.91
2022-07-25T03:09:28.690Z,68.74
2022-07-25T03:10:23.770Z,68.31
2022-07-25T03:11:19.156Z,68.32
2022-07-25T03:12:15.042Z,68.91
2022-07-25T03:13:10.234Z,68.43
2022-07-25T03:14:05.819Z,68.10
2022-07-25T03:15:02.026Z,68.20
2022-07-25T03:15:57.221Z,68.49
2022-07-25T03:16:53.119Z,68.54
2022-07-25T03:17:48.238Z,68.98
2022-07-25T03:18:43.677Z,68.85
2022-07-25T03:19:39.425Z,68.89
2022-07-25T03:20:34.707Z,69.02
2022-07-25T03:21:30.562Z,69.07
2022-07-25T03:22:25.699Z,69.14
2022-07-25T03:23:21.079Z,69.36
2022-07-25T03:24:16.851Z,69.66
2022-07-25T03:25:15.781Z,69.27
2022-07-25T03:26:08.247Z,69.86
2022-07-25T03:27:02.529Z,69.98
2022-07-25T03:27:58.414Z,70.46
2022-07-25T03:28:53.506Z,70.15
2022-07-25T03:29:48.820Z,69.93
2022-07-25T03:30:45.042Z,69.43
2022-07-25T03:31:40.274Z,68.78
2022-07-25T03:32:35.980Z,68.74
2022-07-25T03:33:31.126Z,68.83
2022-07-25T03:34:26.624Z,69.10
2022-07-25T03:35:22.247Z,69.14
2022-07-25T03:36:17.521Z,69.15
2022-07-25T03:37:13.408Z,68.98
2022-07-25T03:38:08.572Z,68.74
2022-07-25T03:39:05.327Z,68.75
2022-07-25T03:39:59.524Z,68.81
2022-07-25T03:40:54.850Z,68.88
2022-07-25T03:41:50.101Z,68.96
2022-07-25T03:42:46.523Z,68.86
2022-07-25T03:43:41.903Z,68.69
2022-07-25T03:44:37.737Z,69.15
2022-07-25T03:45:33.076Z,69.25
2022-07-25T03:46:28.281Z,69.34
2022-07-25T03:47:23.962Z,69.61
2022-07-25T03:48:19.307Z,70.17
2022-07-25T03:49:15.098Z,70.66
2022-07-25T03:50:10.445Z,71.38
2022-07-25T03:51:07.297Z,71.66
2022-07-25T03:52:01.511Z,71.74
2022-07-25T03:52:56.792Z,71.32
2022-07-25T03:53:52.068Z,71.53
2022-07-25T03:54:48.402Z,71.13
2022-07-25T03:55:43.713Z,71.09
2022-07-25T03:56:43.593Z,70.74
2022-07-25T03:57:34.711Z,70.31
2022-07-25T03:58:29.988Z,70.01
2022-07-25T03:59:25.880Z,69.72
2022-07-25T04:00:21.225Z,69.77
2022-07-25T04:01:17.110Z,70.23
2022-07-25T04:02:12.453Z,69.96
2022-07-25T04:03:07.909Z,69.76
2022-07-25T04:04:03.160Z,69.72
2022-07-25T04:04:57.989Z,69.60
2022-07-25T04:05:53.020Z,69.59
2022-07-25T04:06:48.022Z,69.64
2022-07-25T04:07:43.128Z,69.40
2022-07-25T04:08:38.135Z,69.78
2022-07-25T04:09:33.743Z,69.79
2022-07-25T04:10:28.277Z,69.59
2022-07-25T04:11:23.271Z,69.82
2022-07-25T04:12:18.352Z,69.66
2022-07-25T04:13:13.409Z,69.85
2022-07-25T04:14:08.832Z,69.48
2022-07-25T04:15:03.584Z,69.88
2022-07-25T04:15:58.613Z,69.92
2022-07-25T04:16:53.735Z,69.99
2022-07-25T04:17:48.772Z,69.67
2022-07-25T04:18:43.804Z,70.00
2022-07-25T04:19:38.929Z,69.71
2022-07-25T04:20:34.038Z,69.77
2022-07-25T04:21:29.126Z,70.03
2022-07-25T04:22:24.229Z,70.08
2022-07-25T04:23:19.325Z,69.85
2022-07-25T04:24:14.637Z,69.90
2022-07-25T04:25:09.995Z,69.85
2022-07-25T04:26:05.337Z,69.71
2022-07-25T04:27:00.434Z,70.01
2022-07-25T04:28:00.414Z,69.62
2022-07-25T04:28:55.624Z,69.86
2022-07-25T04:29:51.103Z,69.74
2022-07-25T04:30:46.501Z,69.86
2022-07-25T04:31:42.910Z,69.77
2022-07-25T04:32:38.216Z,69.66
2022-07-25T04:33:33.581Z,69.77
2022-07-25T04:34:32.524Z,69.86
2022-07-25T04:35:27.836Z,69.96
2022-07-25T04:36:23.219Z,70.11
2022-07-25T04:37:18.608Z,70.63
2022-07-25T04:38:13.641Z,71.25
2022-07-25T04:39:08.675Z,71.13
2022-07-25T04:40:03.750Z,71.40
2022-07-25T04:40:58.809Z,71.29
2022-07-25T04:41:53.825Z,70.68
2022-07-25T04:42:49.049Z,69.72
2022-07-25T04:43:48.528Z,69.22
2022-07-25T04:44:40.109Z,68.81
2022-07-25T04:45:34.124Z,68.46
2022-07-25T04:46:29.099Z,68.06
2022-07-25T04:47:24.168Z,68.31
2022-07-25T04:48:19.225Z,68.18
2022-07-25T04:49:14.463Z,67.84
2022-07-25T04:50:09.288Z,67.86
2022-07-25T04:51:04.364Z,67.83
2022-07-25T04:51:59.444Z,67.53
2022-07-25T04:52:54.586Z,67.25
2022-07-25T04:53:49.558Z,67.15
2022-07-25T04:54:44.636Z,67.04
2022-07-25T04:55:39.657Z,67.32
2022-07-25T04:56:34.675Z,67.35
2022-07-25T04:57:29.788Z,67.29
2022-07-25T04:58:24.865Z,67.01
2022-07-25T04:59:21.773Z,66.94
2022-07-25T05:00:16.827Z,66.62
2022-07-25T05:01:11.992Z,66.26
2022-07-25T05:02:07.036Z,65.84
2022-07-25T05:03:03.260Z,65.58
2022-07-25T05:03:58.553Z,65.20
2022-07-25T05:04:53.972Z,65.00
2022-07-25T05:05:49.392Z,64.94
2022-07-25T05:06:45.051Z,64.72
2022-07-25T05:07:40.412Z,64.85
2022-07-25T05:08:35.905Z,65.15
2022-07-25T05:09:31.429Z,65.13
2022-07-25T05:10:26.812Z,65.03
2022-07-25T05:11:22.123Z,64.98
2022-07-25T05:12:17.491Z,65.02
2022-07-25T05:13:13.223Z,65.25
2022-07-25T05:14:08.629Z,65.50
2022-07-25T05:15:03.785Z,65.40
2022-07-25T05:15:58.915Z,65.30
2022-07-25T05:16:54.078Z,65.34
2022-07-25T05:17:49.164Z,65.53
2022-07-25T05:18:44.234Z,65.43
2022-07-25T05:19:39.211Z,65.42
2022-07-25T05:20:34.305Z,65.47
2022-07-25T05:21:29.311Z,65.85
2022-07-25T05:22:28.544Z,65.95
2022-07-25T05:23:21.628Z,65.91
2022-07-25T05:24:16.848Z,66.60
2022-07-25T05:25:11.850Z,66.37
2022-07-25T05:26:06.877Z,66.52
2022-07-25T05:27:01.957Z,66.45
2022-07-25T05:27:57.206Z,66.60
2022-07-25T05:28:52.221Z,66.57
2022-07-25T05:29:47.308Z,66.32
2022-07-25T05:30:42.336Z,65.93
2022-07-25T05:31:37.339Z,65.85
2022-07-25T05:32:32.532Z,65.67
2022-07-25T05:33:27.565Z,65.58
2022-07-25T05:34:22.651Z,65.40
2022-07-25T05:35:17.715Z,65.29
2022-07-25T05:36:12.731Z,65.20
2022-07-25T05:37:08.342Z,64.99
2022-07-25T05:38:03.733Z,65.21
2022-07-25T05:38:59.162Z,65.16
2022-07-25T05:39:54.653Z,64.99
2022-07-25T05:40:50.085Z,65.08
2022-07-25T05:41:45.150Z,65.36
2022-07-25T05:42:40.173Z,65.57
2022-07-25T05:43:35.366Z,65.98
2022-07-25T05:44:30.324Z,65.90
2022-07-25T05:45:25.357Z,65.64
2022-07-25T05:46:20.387Z,65.25
2022-07-25T05:47:15.446Z,65.04
2022-07-25T05:48:10.830Z,64.75
2022-07-25T05:49:05.940Z,64.41
2022-07-25T05:50:00.870Z,64.19
2022-07-25T05:50:55.989Z,64.23
2022-07-25T05:51:50.962Z,64.23
2022-07-25T05:52:46.068Z,64.20
2022-07-25T05:53:41.193Z,63.93
2022-07-25T05:54:36.244Z,63.81
2022-07-25T05:55:31.294Z,63.70
2022-07-25T05:56:26.362Z,63.30
2022-07-25T05:57:21.400Z,63.54
2022-07-25T05:58:16.389Z,63.74
2022-07-25T05:59:11.531Z,63.92
2022-07-25T06:00:06.981Z,64.18
2022-07-25T06:01:02.581Z,64.12
2022-07-25T06:01:58.105Z,64.05
2022-07-25T06:02:53.447Z,64.31
2022-07-25T06:03:48.772Z,64.29
2022-07-25T06:04:44.200Z,64.17
2022-07-25T06:05:39.658Z,64.26
2022-07-25T06:06:35.104Z,64.28
2022-07-25T06:07:30.536Z,64.36
2022-07-25T06:08:25.970Z,64.26
2022-07-25T06:09:21.539Z,63.93
2022-07-25T06:10:16.857Z,64.07
2022-07-25T06:11:16.268Z,63.99
2022-07-25T06:12:11.689Z,63.71
2022-07-25T06:13:07.109Z,63.62
2022-07-25T06:14:02.627Z,63.78
2022-07-25T06:14:57.992Z,63.73
2022-07-25T06:15:53.691Z,63.48
2022-07-25T06:16:49.162Z,63.17
2022-07-25T06:17:44.593Z,63.05
2022-07-25T06:18:40.194Z,62.91
2022-07-25T06:19:35.605Z,63.39
2022-07-25T06:20:31.028Z,63.52
2022-07-25T06:21:26.647Z,63.59
2022-07-25T06:22:22.068Z,63.74
2022-07-25T06:23:17.527Z,63.50
2022-07-25T06:24:13.020Z,63.73
2022-07-25T06:25:08.044Z,63.99
2022-07-25T06:26:03.110Z,64.12
2022-07-25T06:26:58.162Z,64.22
2022-07-25T06:27:53.396Z,64.43
2022-07-25T06:28:48.472Z,64.92
2022-07-25T06:29:43.514Z,64.78
2022-07-25T06:30:38.546Z,65.06
2022-07-25T06:31:33.657Z,65.12
2022-07-25T06:32:28.744Z,65.52
2022-07-25T06:33:23.794Z,65.94
2022-07-25T06:34:20.059Z,65.69
2022-07-25T06:35:15.102Z,65.77
2022-07-25T06:36:10.200Z,65.60
2022-07-25T06:37:05.131Z,65.56
2022-07-25T06:38:00.973Z,65.84
2022-07-25T06:38:56.450Z,65.97
2022-07-25T06:39:51.899Z,65.87
2022-07-25T06:40:47.329Z,65.76
2022-07-25T06:41:42.835Z,65.72
2022-07-25T06:42:38.417Z,65.94
2022-07-25T06:43:33.890Z,65.22
2022-07-25T06:44:29.318Z,65.21
2022-07-25T06:45:25.402Z,65.01
2022-07-25T06:46:20.289Z,65.14
2022-07-25T06:47:15.750Z,64.74
2022-07-25T06:48:11.238Z,64.57
2022-07-25T06:49:06.757Z,64.26
2022-07-25T06:50:02.205Z,63.94
2022-07-25T06:50:57.634Z,64.16
2022-07-25T06:51:53.088Z,63.76
2022-07-25T06:52:48.715Z,63.97
2022-07-25T06:53:44.152Z,63.68
2022-07-25T06:54:39.581Z,63.58
2022-07-25T06:55:35.196Z,63.87
2022-07-25T06:56:30.636Z,63.55
2022-07-25T06:57:26.184Z,63.39
2022-07-25T06:58:22.820Z,63.06
2022-07-25T06:59:17.037Z,62.74
2022-07-25T07:00:12.077Z,63.00
2022-07-25T07:01:07.191Z,62.89
2022-07-25T07:02:02.128Z,63.07
2022-07-25T07:02:58.344Z,62.80
2022-07-25T07:03:52.345Z,62.78
2022-07-25T07:04:47.392Z,62.39
2022-07-25T07:05:42.448Z,61.65
2022-07-25T07:06:37.462Z,61.50
2022-07-25T07:07:32.495Z,61.00
2022-07-25T07:08:27.551Z,60.65
2022-07-25T07:09:22.646Z,60.46
2022-07-25T07:10:17.757Z,60.49
2022-07-25T07:11:12.789Z,60.42
2022-07-25T07:12:07.882Z,59.83
2022-07-25T07:13:03.125Z,59.49
2022-07-25T07:13:58.130Z,59.40
2022-07-25T07:14:53.224Z,59.50
2022-07-25T07:15:48.250Z,59.16
2022-07-25T07:16:43.337Z,59.04
2022-07-25T07:17:38.674Z,59.16
2022-07-25T07:18:33.345Z,59.20
2022-07-25T07:19:28.462Z,58.53
2022-07-25T07:20:23.417Z,58.66
2022-07-25T07:21:21.127Z,58.36
2022-07-25T07:22:13.636Z,58.40
2022-07-25T07:23:09.978Z,58.25
2022-07-25T07:24:05.593Z,57.56
2022-07-25T07:25:02.139Z,57.94
2022-07-25T07:25:56.470Z,57.96
2022-07-25T07:26:51.929Z,57.71
2022-07-25T07:27:47.473Z,57.76
2022-07-25T07:28:42.996Z,57.27
2022-07-25T07:29:38.469Z,57.61
2022-07-25T07:31:05.583Z,57.87
2022-07-25T07:31:30.320Z,57.52
2022-07-25T07:32:24.744Z,56.93
2022-07-25T07:33:20.058Z,56.95
2022-07-25T07:34:16.670Z,56.92
2022-07-25T07:35:10.813Z,57.27
2022-07-25T07:36:05.946Z,57.28
2022-07-25T07:37:00.966Z,56.68
2022-07-25T07:37:55.998Z,56.45
2022-07-25T07:38:51.054Z,56.83
2022-07-25T07:39:46.091Z,56.76
2022-07-25T07:40:41.135Z,56.26
2022-07-25T07:41:36.205Z,56.35
2022-07-25T07:42:31.675Z,56.28
2022-07-25T07:43:30.031Z,56.16
2022-07-25T07:44:21.886Z,55.95
2022-07-25T07:45:16.957Z,56.29
2022-07-25T07:46:12.084Z,56.47
2022-07-25T07:47:07.034Z,55.89
2022-07-25T07:48:03.104Z,55.58
2022-07-25T07:48:57.285Z,55.04
2022-07-25T07:49:52.619Z,55.22
2022-07-25T07:50:48.073Z,54.75
2022-07-25T07:51:43.562Z,54.82
2022-07-25T07:52:39.066Z,54.54
2022-07-25T07:53:34.542Z,54.59
2022-07-25T07:54:29.887Z,55.12
2022-07-25T07:55:25.358Z,54.91
2022-07-25T07:56:20.852Z,55.03
2022-07-25T07:57:16.306Z,54.51
2022-07-25T07:58:11.775Z,53.99
2022-07-25T07:59:07.176Z,53.86
2022-07-25T08:00:01.869Z,53.81
2022-07-25T08:00:56.922Z,53.31
2022-07-25T08:01:52.104Z,53.36
2022-07-25T08:02:47.192Z,53.93
2022-07-25T08:03:42.183Z,53.78
2022-07-25T08:04:37.254Z,53.53
2022-07-25T08:05:34.841Z,53.73
2022-07-25T08:06:29.903Z,53.46
2022-07-25T08:07:24.972Z,53.23
2022-07-25T08:08:20.059Z,52.65
2022-07-25T08:09:15.060Z,52.55
2022-07-25T08:10:10.081Z,51.90
2022-07-25T08:11:05.167Z,52.28
2022-07-25T08:12:00.208Z,52.13
2022-07-25T08:12:55.259Z,52.31
2022-07-25T08:13:50.315Z,52.18
2022-07-25T08:14:45.316Z,52.35
2022-07-25T08:15:40.388Z,51.50
2022-07-25T08:16:35.480Z,50.99
2022-07-25T08:17:30.866Z,50.91
2022-07-25T08:18:26.190Z,51.02
2022-07-25T08:19:21.762Z,51.19
2022-07-25T08:20:37.044Z,51.46
2022-07-25T08:21:13.726Z,51.15
2022-07-25T08:22:08.122Z,50.98
2022-07-25T08:23:03.578Z,50.59
2022-07-25T08:23:58.967Z,50.77
2022-07-25T08:24:54.462Z,50.64
2022-07-25T08:25:50.016Z,50.70
2022-07-25T08:26:45.715Z,51.31
2022-07-25T08:27:41.059Z,50.91
2022-07-25T08:28:39.941Z,50.51
2022-07-25T08:29:35.642Z,49.87
2022-07-25T08:30:31.218Z,49.34
2022-07-25T08:31:26.699Z,49.11
2022-07-25T08:32:22.159Z,48.89
2022-07-25T08:33:17.541Z,48.55
2022-07-25T08:34:13.051Z,48.35
2022-07-25T08:35:11.532Z,48.27
2022-07-25T08:36:03.958Z,48.47
2022-07-25T08:36:59.597Z,48.13
2022-07-25T08:37:55.126Z,47.58
2022-07-25T08:38:50.636Z,47.33
2022-07-25T08:39:46.732Z,47.87
2022-07-25T08:40:42.173Z,48.39
2022-07-25T08:41:37.560Z,48.82
2022-07-25T08:42:32.598Z,49.93
2022-07-25T08:43:27.645Z,50.25
2022-07-25T08:44:22.783Z,50.12
2022-07-25T08:45:17.753Z,49.90
2022-07-25T08:46:12.800Z,49.53
2022-07-25T08:47:07.827Z,49.51
2022-07-25T08:48:02.912Z,49.34
2022-07-25T08:48:58.047Z,49.07
2022-07-25T08:49:53.072Z,48.86
2022-07-25T08:50:48.113Z,48.49
2022-07-25T08:51:44.503Z,48.24
2022-07-25T08:52:39.584Z,48.94
2022-07-25T08:53:35.576Z,49.21
2022-07-25T08:54:30.022Z,48.89
2022-07-25T08:55:25.121Z,49.29
2022-07-25T08:56:21.277Z,49.25
2022-07-25T08:57:15.152Z,49.10
2022-07-25T08:58:10.169Z,49.21
2022-07-25T08:59:05.240Z,49.26
2022-07-25T09:00:00.355Z,49.12
2022-07-25T09:00:55.370Z,48.70
2022-07-25T09:01:50.513Z,48.19
2022-07-25T09:02:45.601Z,48.13
2022-07-25T09:03:41.009Z,47.79
2022-07-25T09:04:36.018Z,47.98
2022-07-25T09:05:31.101Z,48.16
2022-07-25T09:06:26.190Z,48.93
2022-07-25T09:07:24.502Z,49.32
2022-07-25T09:08:19.628Z,49.26
2022-07-25T09:09:14.675Z,49.10
2022-07-25T09:10:09.722Z,48.40
2022-07-25T09:11:04.798Z,47.85
2022-07-25T09:11:59.784Z,47.12
2022-07-25T09:12:54.900Z,47.19
2022-07-25T09:13:50.003Z,46.72
2022-07-25T09:14:45.072Z,45.95
2022-07-25T09:15:40.217Z,45.55
2022-07-25T09:16:35.137Z,45.96
2022-07-25T09:17:30.247Z,45.85
2022-07-25T09:18:25.411Z,46.02
2022-07-25T09:19:21.015Z,46.17
2022-07-25T09:20:18.542Z,46.34
2022-07-25T09:21:12.015Z,46.06
2022-07-25T09:22:07.412Z,45.98
2022-07-25T09:23:02.861Z,45.68
2022-07-25T09:23:58.274Z,45.18
2022-07-25T09:24:53.921Z,45.15
2022-07-25T09:25:49.340Z,44.80
2022-07-25T09:26:44.891Z,44.56
2022-07-25T09:27:40.295Z,44.08
2022-07-25T09:28:35.678Z,44.41
2022-07-25T09:29:31.124Z,44.91
2022-07-25T09:30:30.347Z,44.78
2022-07-25T09:31:25.819Z,44.32
2022-07-25T09:32:21.226Z,44.12
2022-07-25T09:33:16.597Z,43.19
2022-07-25T09:34:12.144Z,42.94
2022-07-25T09:35:07.675Z,42.68
2022-07-25T09:36:02.985Z,42.47
2022-07-25T09:36:58.274Z,42.27
2022-07-25T09:37:53.785Z,42.31
2022-07-25T09:38:49.573Z,42.16
2022-07-25T09:39:47.294Z,42.09
2022-07-25T09:40:41.415Z,42.07
2022-07-25T09:41:36.895Z,41.78
2022-07-25T09:42:32.351Z,41.75
2022-07-25T09:43:27.850Z,41.63
2022-07-25T09:44:23.297Z,41.49
2022-07-25T09:45:18.787Z,41.92
2022-07-25T09:46:13.955Z,41.45
2022-07-25T09:47:08.849Z,41.54
2022-07-25T09:48:03.967Z,41.42
2022-07-25T09:48:59.032Z,40.69
2022-07-25T09:49:54.103Z,40.42
2022-07-25T09:50:49.197Z,40.10
2022-07-25T09:51:44.432Z,40.21
2022-07-25T09:52:39.370Z,40.43
2022-07-25T09:53:34.441Z,40.53
2022-07-25T09:54:29.454Z,40.53
2022-07-25T09:55:24.508Z,40.68
2022-07-25T09:56:19.556Z,40.40
2022-07-25T09:57:14.568Z,40.08
2022-07-25T09:58:10.205Z,39.89
2022-07-25T09:59:05.544Z,39.66
2022-07-25T10:00:01.017Z,39.48
2022-07-25T10:00:56.528Z,39.78
2022-07-25T10:01:52.135Z,40.06
2022-07-25T10:02:47.730Z,39.93
2022-07-25T10:03:42.981Z,40.08
2022-07-25T10:04:37.798Z,39.87
2022-07-25T10:05:32.834Z,39.07
2022-07-25T10:06:28.936Z,38.85
2022-07-25T10:07:27.070Z,38.95
2022-07-25T10:08:20.160Z,38.73
2022-07-25T10:09:14.297Z,39.00
2022-07-25T10:10:10.192Z,38.51
2022-07-25T10:11:05.721Z,38.21
2022-07-25T10:12:01.323Z,38.17
2022-07-25T10:12:56.820Z,38.00
2022-07-25T10:13:52.430Z,37.56
2022-07-25T10:14:47.761Z,37.85
2022-07-25T10:15:43.159Z,37.81
2022-07-25T10:16:38.847Z,37.98
2022-07-25T10:17:34.253Z,37.35
2022-07-25T10:18:29.592Z,36.93
2022-07-25T10:19:25.243Z,36.23
2022-07-25T10:20:20.618Z,36.29
2022-07-25T10:21:26.215Z,36.00
2022-07-25T10:22:12.720Z,35.27
2022-07-25T10:23:06.725Z,35.41
2022-07-25T10:24:01.809Z,35.43
2022-07-25T10:24:56.905Z,35.63
2022-07-25T10:25:52.082Z,36.30
2022-07-25T10:26:47.054Z,36.58
2022-07-25T10:27:42.136Z,36.84
2022-07-25T10:28:37.229Z,36.81
2022-07-25T10:29:34.510Z,36.84
2022-07-25T10:30:29.740Z,36.28
2022-07-25T10:31:24.953Z,35.94
2022-07-25T10:32:19.928Z,35.40
2022-07-25T10:33:15.047Z,34.76
2022-07-25T10:34:10.685Z,34.93
2022-07-25T10:35:05.159Z,34.85
2022-07-25T10:36:00.288Z,33.99
2022-07-25T10:36:55.789Z,34.85
2022-07-25T10:37:51.140Z,34.70
2022-07-25T10:38:46.686Z,35.04
2022-07-25T10:39:42.354Z,34.95
2022-07-25T10:40:37.856Z,34.56
2022-07-25T10:41:33.388Z,34.44
2022-07-25T10:42:28.777Z,34.82
2022-07-25T10:43:24.268Z,35.31
2022-07-25T10:44:19.351Z,35.86
2022-07-25T10:45:14.559Z,35.79
2022-07-25T10:46:09.542Z,35.63
2022-07-25T10:47:04.593Z,35.23
2022-07-25T10:47:59.673Z,34.91
2022-07-25T10:48:54.889Z,34.94
2022-07-25T10:50:13.840Z,34.54
2022-07-25T10:50:55.335Z,34.44
2022-07-25T10:51:42.127Z,34.97
2022-07-25T10:52:34.991Z,34.74
2022-07-25T10:53:30.096Z,34.42
2022-07-25T10:54:25.117Z,34.36
2022-07-25T10:55:20.099Z,34.36
2022-07-25T10:56:15.188Z,34.04
2022-07-25T10:57:10.534Z,34.20
2022-07-25T10:58:20.308Z,34.24
2022-07-25T10:59:02.642Z,34.07
2022-07-25T10:59:57.085Z,34.16
2022-07-25T11:00:52.657Z,34.04
2022-07-25T11:01:48.192Z,33.08
2022-07-25T11:02:43.861Z,32.79
2022-07-25T11:03:39.208Z,32.89
2022-07-25T11:04:34.746Z,33.59
2022-07-25T11:05:30.276Z,33.76
2022-07-25T11:06:25.881Z,34.02
2022-07-25T11:07:21.221Z,33.66
2022-07-25T11:08:22.141Z,33.79
2022-07-25T11:09:18.484Z,33.62
2022-07-25T11:10:10.844Z,33.25
2022-07-25T11:11:06.236Z,34.03
2022-07-25T11:12:01.738Z,33.47
2022-07-25T11:12:57.411Z,33.76
2022-07-25T11:13:52.772Z,33.70
2022-07-25T11:14:48.425Z,33.49
2022-07-25T11:15:43.815Z,33.85
2022-07-25T11:16:39.286Z,34.14
2022-07-25T11:17:34.351Z,33.86
2022-07-25T11:18:29.371Z,34.58
2022-07-25T11:19:24.416Z,34.56
2022-07-25T11:20:19.584Z,34.54
2022-07-25T11:21:14.717Z,34.58
2022-07-25T11:22:09.799Z,34.35
2022-07-25T11:23:04.897Z,34.40
2022-07-25T11:24:00.073Z,34.33
2022-07-25T11:24:55.130Z,33.72
2022-07-25T11:25:50.140Z,33.82
2022-07-25T11:26:45.307Z,33.98
2022-07-25T11:27:40.389Z,33.71
2022-07-25T11:28:35.501Z,33.72
2022-07-25T11:29:30.612Z,33.80
2022-07-25T11:30:25.983Z,33.10
2022-07-25T11:31:25.222Z,33.03
2022-07-25T11:32:20.808Z,33.29
2022-07-25T11:33:17.641Z,33.82
2022-07-25T11:34:11.755Z,33.77
2022-07-25T11:35:07.388Z,33.38
2022-07-25T11:36:03.147Z,33.77
2022-07-25T11:36:58.477Z,34.15
2022-07-25T11:37:53.743Z,33.85
2022-07-25T11:38:49.352Z,33.90
2022-07-25T11:39:44.859Z,33.95
2022-07-25T11:40:40.394Z,33.50
2022-07-25T11:41:35.671Z,34.09
2022-07-25T11:42:31.260Z,34.28
2022-07-25T11:43:26.584Z,34.24
2022-07-25T11:44:22.454Z,34.14
2022-07-25T11:45:17.916Z,33.87
2022-07-25T11:46:13.529Z,33.62
2022-07-25T11:47:08.806Z,32.83
2022-07-25T11:48:04.257Z,32.72
2022-07-25T11:48:59.857Z,32.58
2022-07-25T11:49:54.930Z,32.99
2022-07-25T11:50:49.960Z,33.13
2022-07-25T11:51:44.934Z,33.18
2022-07-25T11:52:39.992Z,33.54